Terminal Aerodrome Forecast
Issued by NWS

Home | Current Version | Previous Version | Text Only | Print | Product List | Glossary On
Versions: 1 2 3 4 5 6 7 8 9 10 11 12 13 14 15 16
000
FTUS44 KMAF 052320
TAFCNM
TAF
KCNM 052320Z 0600/0624 14009G16KT P6SM SCT070 BKN250
     FM060200 20006KT P6SM FEW060 OVC200
     FM061200 20007KT P6SM OVC250
     FM061600 02007G17KT P6SM SCT040 BKN250=

USA.gov is the U.S. government's official web portal to all federal, state and local government web resources and services.